Time;durP1;ratioP1;P1;durP2;ratioP2;P2;SDS_P1;SDS_P2;PMS_P1;PMS_P2;Temp;Humidity;BMP_temperature;BMP_pressure;BME280_temperature;BME280_humidity;BME280_pressure;Samples;Min_cycle;Max_cycle;Signal;HPM_P1;HPM_P2
2022/06/13 00:01:56;;;;;;;15.98;5.45;;;13.20;92.30;;;;;;5136730;27;20037;-64
2022/06/13 00:04:22;;;;;;;9.77;4.93;;;13.20;92.20;;;;;;5146838;27;20110;-64
2022/06/13 00:06:48;;;;;;;14.63;4.93;;;13.20;92.30;;;;;;5141240;27;20030;-64
2022/06/13 00:09:14;;;;;;;12.55;4.85;;;13.20;92.30;;;;;;5145392;27;20031;-64
2022/06/13 00:11:39;;;;;;;11.77;4.97;;;13.20;92.30;;;;;;5142243;27;20039;-64
2022/06/13 00:14:05;;;;;;;11.95;4.68;;;13.20;92.30;;;;;;5145387;27;20035;-64
2022/06/13 00:16:31;;;;;;;13.68;4.80;;;13.20;92.40;;;;;;5145070;27;20049;-64
2022/06/13 00:18:57;;;;;;;12.82;5.20;;;13.20;92.40;;;;;;5137355;27;20393;-64
2022/06/13 00:21:29;;;;;;;12.77;4.28;;;13.10;92.50;;;;;;5140040;27;20377;-64
2022/06/13 00:23:55;;;;;;;11.13;4.85;;;13.10;92.70;;;;;;5138948;27;20146;-64
2022/06/13 00:26:24;;;;;;;10.48;4.45;;;13.00;92.60;;;;;;5137870;27;20047;-64
2022/06/13 00:28:51;;;;;;;13.77;4.82;;;13.10;92.70;;;;;;5138454;27;20035;-63
2022/06/13 00:31:17;;;;;;;12.90;5.45;;;13.10;92.50;;;;;;5144063;27;20047;-64
2022/06/13 00:33:42;;;;;;;13.50;4.88;;;13.20;92.50;;;;;;5149547;27;20108;-64
2022/06/13 00:36:09;;;;;;;9.07;4.40;;;13.20;92.50;;;;;;5150248;27;20465;-64
2022/06/13 00:38:37;;;;;;;11.23;4.65;;;13.30;92.40;;;;;;5146717;27;20466;-63
2022/06/13 00:41:06;;;;;;;12.50;4.95;;;13.30;92.40;;;;;;5150417;27;20045;-64
2022/06/13 00:43:33;;;;;;;10.45;4.32;;;13.30;92.40;;;;;;5146664;27;20292;-63
2022/06/13 00:45:59;;;;;;;12.85;4.38;;;13.30;92.20;;;;;;5143447;27;20079;-64
2022/06/13 00:48:29;;;;;;;11.40;4.75;;;13.30;92.20;;;;;;5144032;27;20035;-64
2022/06/13 00:50:59;;;;;;;10.23;4.45;;;13.40;92.40;;;;;;5133236;27;20394;-64
2022/06/13 00:53:29;;;;;;;10.73;4.10;;;13.30;92.40;;;;;;5146327;27;20534;-63
2022/06/13 00:56:00;;;;;;;11.52;4.95;;;13.30;92.30;;;;;;5147253;27;20087;-64
2022/06/13 00:58:29;;;;;;;13.27;4.63;;;13.20;92.60;;;;;;5147434;27;20065;-64
2022/06/13 01:00:57;;;;;;;13.50;4.70;;;13.20;92.50;;;;;;5146420;27;20050;-64
2022/06/13 01:03:26;;;;;;;12.02;4.55;;;13.10;92.60;;;;;;5149739;27;20090;-64
2022/06/13 01:05:53;;;;;;;13.48;4.55;;;13.20;92.60;;;;;;5151595;27;20394;-64
2022/06/13 01:08:23;;;;;;;15.98;4.90;;;13.10;92.70;;;;;;5140024;27;20039;-64
2022/06/13 01:13:47;;;;;;;11.02;4.35;;;13.20;93.00;;;;;;5147673;27;20162;-64
2022/06/13 01:16:42;;;;;;;14.35;4.95;;;13.20;92.60;;;;;;5143172;27;20046;-64
2022/06/13 01:19:36;;;;;;;9.80;4.32;;;13.20;93.10;;;;;;5146802;27;20426;-64
2022/06/13 01:22:39;;;;;;;14.32;4.97;;;13.30;93.10;;;;;;5139089;27;20394;-64
2022/06/13 01:25:14;;;;;;;12.27;3.90;;;13.20;93.10;;;;;;5144583;27;20046;-64
2022/06/13 01:28:11;;;;;;;10.48;4.50;;;13.20;92.60;;;;;;5143420;27;20022;-64
2022/06/13 01:30:58;;;;;;;13.27;4.97;;;13.30;93.20;;;;;;5139316;27;20446;-64
2022/06/13 01:33:34;;;;;;;11.98;4.78;;;13.30;92.80;;;;;;5148143;27;20389;-64
2022/06/13 01:36:12;;;;;;;10.90;4.82;;;13.30;93.00;;;;;;5150802;27;20450;-64
2022/06/13 01:38:58;;;;;;;12.77;4.65;;;13.30;93.00;;;;;;5148202;27;20401;-64
2022/06/13 01:41:30;;;;;;;13.02;4.55;;;13.20;93.10;;;;;;5150613;27;20045;-63
2022/06/13 01:44:08;;;;;;;9.75;4.38;;;13.20;93.10;;;;;;5142400;27;20588;-62
2022/06/13 01:46:42;;;;;;;12.88;4.43;;;13.10;93.00;;;;;;5133794;27;20047;-63
2022/06/13 01:49:43;;;;;;;10.68;4.47;;;13.00;93.00;;;;;;5144522;27;20038;-64
2022/06/13 01:52:42;;;;;;;15.25;4.45;;;13.00;93.30;;;;;;5101015;27;20054;-64
2022/06/13 01:55:27;;;;;;;9.95;4.50;;;13.00;93.40;;;;;;5140696;27;20051;-64
2022/06/13 01:58:04;;;;;;;11.32;5.15;;;12.90;94.00;;;;;;5143496;27;20039;-64
2022/06/13 02:00:32;;;;;;;15.40;4.72;;;12.90;94.10;;;;;;5141361;27;20455;-64
2022/06/13 02:03:19;;;;;;;14.32;5.65;;;12.80;94.00;;;;;;5142816;27;20120;-64
2022/06/13 02:06:09;;;;;;;11.00;4.82;;;13.00;95.10;;;;;;5143703;27;20043;-64
2022/06/13 02:08:43;;;;;;;13.68;4.88;;;12.90;94.30;;;;;;5145389;27;20500;-64
2022/06/13 02:11:22;;;;;;;8.15;4.68;;;12.90;94.10;;;;;;5142229;27;20031;-64
2022/06/13 02:14:16;;;;;;;10.75;4.40;;;12.90;94.30;;;;;;5134761;27;20559;-63
2022/06/13 02:16:52;;;;;;;13.63;5.03;;;12.90;94.80;;;;;;5144706;27;20129;-64
2022/06/13 02:19:39;;;;;;;14.50;5.53;;;13.00;94.30;;;;;;5135572;27;20026;-64
2022/06/13 02:22:31;;;;;;;16.20;5.80;;;13.00;95.20;;;;;;5144382;27;20483;-64
2022/06/13 02:25:02;;;;;;;14.38;4.93;;;13.00;94.60;;;;;;5141932;27;20039;-63
2022/06/13 02:27:32;;;;;;;15.43;5.30;;;13.00;94.50;;;;;;5145619;27;20030;-64
2022/06/13 02:30:03;;;;;;;12.70;4.95;;;13.00;94.90;;;;;;5138630;27;20117;-64
2022/06/13 02:32:39;;;;;;;11.55;5.60;;;12.90;94.70;;;;;;5126787;27;20041;-64
2022/06/13 02:35:14;;;;;;;16.50;5.82;;;12.90;95.10;;;;;;5148367;27;20065;-64
2022/06/13 02:37:54;;;;;;;16.60;6.10;;;12.90;95.30;;;;;;5145303;27;20034;-63
2022/06/13 02:40:28;;;;;;;15.05;5.63;;;13.00;95.30;;;;;;5144841;27;20035;-64
2022/06/13 02:43:07;;;;;;;10.18;5.20;;;12.90;95.30;;;;;;5146827;27;20035;-64
2022/06/13 02:45:53;;;;;;;16.25;5.72;;;12.90;95.50;;;;;;5132249;27;20034;-64
2022/06/13 02:48:32;;;;;;;10.15;4.93;;;12.90;95.50;;;;;;5141176;27;20047;-64
2022/06/13 02:51:18;;;;;;;13.52;6.05;;;12.80;95.60;;;;;;5143520;27;20038;-64
2022/06/13 02:53:58;;;;;;;16.00;6.03;;;12.80;95.80;;;;;;5136685;27;20043;-64
2022/06/13 03:00:09;;;;;;;14.23;6.07;;;12.90;96.90;;;;;;5144577;27;20284;-64
2022/06/13 03:03:04;;;;;;;11.40;5.78;;;12.90;96.70;;;;;;5140562;27;20201;-64
2022/06/13 03:05:41;;;;;;;17.27;6.22;;;13.00;96.70;;;;;;5138933;27;20393;-63
2022/06/13 03:08:37;;;;;;;14.45;6.05;;;12.90;96.50;;;;;;5142675;27;20058;-64
2022/06/13 03:11:39;;;;;;;14.98;6.07;;;13.00;97.40;;;;;;5146804;27;20026;-64
2022/06/13 03:14:11;;;;;;;11.05;6.20;;;13.00;97.00;;;;;;5139770;27;20035;-64
2022/06/13 03:16:56;;;;;;;18.73;6.25;;;13.00;96.50;;;;;;5146151;27;20378;-64
2022/06/13 03:19:28;;;;;;;14.65;6.10;;;13.00;97.40;;;;;;5138718;27;20166;-64
2022/06/13 03:22:09;;;;;;;20.50;6.95;;;13.00;96.40;;;;;;5139855;27;20520;-64
2022/06/13 03:24:41;;;;;;;15.32;6.22;;;13.00;97.40;;;;;;5133738;27;20118;-64
2022/06/13 03:27:42;;;;;;;21.65;7.28;;;13.00;96.70;;;;;;5145587;27;20482;-64
2022/06/13 03:30:14;;;;;;;13.27;5.50;;;13.00;98.10;;;;;;5136479;27;20057;-64
2022/06/13 03:35:45;;;;;;;14.48;6.15;;;13.00;98.20;;;;;;5147693;27;20073;-64
2022/06/13 03:38:17;;;;;;;16.98;6.18;;;13.00;97.10;;;;;;5146507;27;20478;-64
2022/06/13 03:40:55;;;;;;;16.70;6.30;;;13.10;97.60;;;;;;5143096;27;23269;-64
2022/06/13 03:43:38;;;;;;;15.10;6.18;;;13.10;98.10;;;;;;5148911;27;20034;-64
2022/06/13 03:46:13;;;;;;;11.90;5.95;;;13.20;97.90;;;;;;5140153;27;20149;-64
2022/06/13 03:48:42;;;;;;;17.40;8.00;;;13.20;97.70;;;;;;5142123;27;20031;-64
2022/06/13 03:51:14;;;;;;;14.70;6.32;;;13.20;97.20;;;;;;5137322;27;20498;-64
2022/06/13 03:54:15;;;;;;;20.40;6.38;;;13.20;97.30;;;;;;5123169;27;20151;-64
2022/06/13 03:56:49;;;;;;;15.18;5.85;;;13.30;98.30;;;;;;5122556;27;20092;-64
2022/06/13 03:59:19;;;;;;;15.68;6.88;;;13.20;97.90;;;;;;5138441;27;20476;-64
2022/06/13 04:01:58;;;;;;;15.93;6.35;;;13.30;97.40;;;;;;5146832;27;20551;-64
2022/06/13 04:04:37;;;;;;;16.35;6.47;;;13.30;97.70;;;;;;5146419;27;20034;-65
2022/06/13 04:07:03;;;;;;;15.95;6.07;;;13.40;97.50;;;;;;5144412;27;20169;-64
2022/06/13 04:09:35;;;;;;;15.65;6.25;;;13.40;97.20;;;;;;5143954;27;20117;-64
2022/06/13 04:12:28;;;;;;;18.67;6.80;;;13.40;97.50;;;;;;5139709;27;20037;-64
2022/06/13 04:15:25;;;;;;;19.52;6.47;;;13.50;97.90;;;;;;5144635;27;20043;-64
2022/06/13 04:18:14;;;;;;;13.88;5.88;;;13.50;97.60;;;;;;5136264;27;20027;-64
2022/06/13 04:21:19;;;;;;;14.98;5.95;;;13.50;97.40;;;;;;5142621;27;20079;-64
2022/06/13 04:23:54;;;;;;;13.73;5.78;;;13.50;97.40;;;;;;5124224;27;20046;-64
2022/06/13 04:26:32;;;;;;;18.23;6.25;;;13.60;97.00;;;;;;5144746;27;20399;-64
2022/06/13 04:29:17;;;;;;;14.60;5.63;;;13.60;97.20;;;;;;5144649;27;20073;-64
2022/06/13 04:31:43;;;;;;;11.93;6.28;;;13.70;96.90;;;;;;5138113;27;20130;-64
2022/06/13 04:34:15;;;;;;;15.88;6.00;;;13.70;96.40;;;;;;5148122;27;20053;-65
2022/06/13 04:36:43;;;;;;;17.42;6.15;;;13.80;96.60;;;;;;5148678;27;20035;-64
2022/06/13 04:39:11;;;;;;;13.35;5.75;;;13.70;96.50;;;;;;5145059;27;20066;-64
2022/06/13 04:41:41;;;;;;;12.73;5.78;;;13.70;96.40;;;;;;5146059;27;20087;-64
2022/06/13 04:44:12;;;;;;;14.77;6.15;;;13.70;96.50;;;;;;5144271;27;20051;-64
2022/06/13 04:46:38;;;;;;;18.55;6.07;;;13.80;96.30;;;;;;5144971;27;20035;-64
2022/06/13 04:49:10;;;;;;;14.70;5.55;;;13.90;96.10;;;;;;5148518;27;20074;-64
2022/06/13 04:51:40;;;;;;;15.13;5.55;;;13.90;96.10;;;;;;5140216;27;20553;-64
2022/06/13 04:54:11;;;;;;;;;;;14.00;96.10;;;;;;5135878;27;20066;-63
2022/06/13 04:56:37;;;;;;;10.25;5.03;;;14.00;95.50;;;;;;5144429;27;19967;-64
2022/06/13 04:59:04;;;;;;;9.50;4.63;;;14.10;95.50;;;;;;5133370;27;20485;-64
2022/06/13 05:01:42;;;;;;;11.43;4.50;;;14.30;95.10;;;;;;5144366;27;20421;-64
2022/06/13 05:04:12;;;;;;;12.82;4.78;;;14.50;94.80;;;;;;5136125;27;20088;-64
2022/06/13 05:06:50;;;;;;;12.88;4.63;;;14.60;94.70;;;;;;5126270;27;20043;-64
2022/06/13 05:09:29;;;;;;;9.27;4.10;;;14.60;94.60;;;;;;5136217;27;20070;-64
2022/06/13 05:12:04;;;;;;;10.15;3.60;;;14.70;93.60;;;;;;5141522;27;20042;-65
2022/06/13 05:14:42;;;;;;;10.60;3.67;;;14.80;92.10;;;;;;5140682;27;20034;-64
2022/06/13 05:17:29;;;;;;;9.82;3.00;;;15.00;92.40;;;;;;5142349;27;20084;-64
2022/06/13 05:20:05;;;;;;;12.00;3.60;;;15.00;90.00;;;;;;5146620;27;20091;-63
2022/06/13 05:22:57;;;;;;;7.72;2.47;;;15.20;90.70;;;;;;5141512;27;20043;-64
2022/06/13 05:25:28;;;;;;;10.50;3.03;;;15.30;91.10;;;;;;5134477;27;20074;-63
2022/06/13 05:27:54;;;;;;;8.30;2.67;;;15.50;90.00;;;;;;5130367;27;20049;-64
2022/06/13 05:30:20;;;;;;;9.80;2.78;;;15.60;91.40;;;;;;5124001;27;20034;-64
2022/06/13 05:32:46;;;;;;;13.60;2.63;;;15.70;91.10;;;;;;5146492;27;20562;-64
2022/06/13 05:35:23;;;;;;;6.38;2.35;;;15.90;90.70;;;;;;5133663;27;20046;-64
2022/06/13 05:37:50;;;;;;;6.07;2.25;;;15.80;90.40;;;;;;5146747;27;20507;-64
2022/06/13 05:40:19;;;;;;;10.15;2.60;;;15.70;89.70;;;;;;5149419;27;20316;-64
2022/06/13 05:42:45;;;;;;;9.70;2.65;;;15.70;89.10;;;;;;5139417;27;20396;-64
2022/06/13 05:45:18;;;;;;;6.07;2.40;;;15.80;88.50;;;;;;5137611;27;20121;-64
2022/06/13 05:47:46;;;;;;;5.90;2.50;;;15.90;88.60;;;;;;5148516;27;20061;-65
2022/06/13 05:50:17;;;;;;;7.00;2.20;;;15.10;92.00;;;;;;5137440;27;20039;-65
2022/06/13 05:52:43;;;;;;;8.88;2.17;;;14.60;93.70;;;;;;5143555;27;20402;-66
2022/06/13 05:55:10;;;;;;;6.15;2.25;;;14.30;95.20;;;;;;5148581;27;20046;-65
2022/06/13 05:57:37;;;;;;;7.70;2.47;;;13.90;96.50;;;;;;5140121;27;22226;-65
2022/06/13 06:00:05;;;;;;;7.90;1.90;;;13.80;97.40;;;;;;5139598;27;20549;-65
2022/06/13 06:02:30;;;;;;;4.55;2.10;;;13.70;98.20;;;;;;5144056;27;20042;-65
2022/06/13 06:04:56;;;;;;;6.70;2.10;;;13.60;98.60;;;;;;5148253;27;20058;-65
2022/06/13 06:07:21;;;;;;;4.95;2.22;;;13.50;99.00;;;;;;5143629;27;20039;-65
2022/06/13 06:09:47;;;;;;;4.28;2.10;;;13.40;99.70;;;;;;5144801;27;20031;-65
2022/06/13 06:12:12;;;;;;;6.55;1.80;;;13.50;99.90;;;;;;5140645;27;20030;-65
2022/06/13 06:14:38;;;;;;;5.05;2.20;;;13.70;99.90;;;;;;5145243;27;20027;-65
2022/06/13 06:17:03;;;;;;;5.38;2.03;;;13.90;99.90;;;;;;5112489;27;20494;-65
2022/06/13 06:19:29;;;;;;;5.45;1.77;;;14.10;99.90;;;;;;5138142;27;20031;-65
2022/06/13 06:21:55;;;;;;;3.88;1.80;;;14.30;99.90;;;;;;5140954;27;20084;-65
2022/06/13 06:24:20;;;;;;;6.43;1.92;;;14.60;99.90;;;;;;5139579;27;20034;-65
2022/06/13 06:26:46;;;;;;;3.60;1.45;;;14.80;99.90;;;;;;5120590;27;20043;-65
2022/06/13 06:29:12;;;;;;;5.20;1.63;;;14.90;99.10;;;;;;5138131;27;20031;-64
2022/06/13 06:31:37;;;;;;;4.13;1.65;;;15.00;98.80;;;;;;5143900;27;20094;-66
2022/06/13 06:34:03;;;;;;;4.20;1.38;;;15.30;99.00;;;;;;5149545;27;20045;-64
2022/06/13 06:36:29;;;;;;;6.05;1.50;;;15.60;98.50;;;;;;5139562;27;20035;-65
2022/06/13 06:38:55;;;;;;;7.03;1.33;;;16.10;97.30;;;;;;5131151;27;20475;-64
2022/06/13 06:41:21;;;;;;;4.88;1.25;;;16.20;95.50;;;;;;5145605;27;20046;-64
2022/06/13 06:43:47;;;;;;;4.00;1.42;;;16.30;95.00;;;;;;5147817;27;20048;-64
2022/06/13 06:46:13;;;;;;;4.40;1.33;;;16.70;94.30;;;;;;5126563;27;20138;-64
2022/06/13 06:48:39;;;;;;;3.50;1.58;;;17.00;93.80;;;;;;5151501;27;20461;-64
2022/06/13 06:51:08;;;;;;;3.55;1.13;;;17.30;93.10;;;;;;5148524;27;20114;-65
2022/06/13 06:59:53;;;;;;;5.18;1.17;;;17.50;92.10;;;;;;5151440;27;20565;-64
2022/06/13 07:01:48;;;;;;;7.05;1.25;;;17.10;90.70;;;;;;5138753;27;20034;-64
2022/06/13 07:04:13;;;;;;;4.20;1.05;;;16.90;89.60;;;;;;5147828;27;20080;-64
2022/06/13 07:06:39;;;;;;;4.53;1.00;;;16.80;90.00;;;;;;5140165;27;20062;-65
2022/06/13 07:09:05;;;;;;;5.50;1.23;;;16.60;90.30;;;;;;5145909;27;20427;-64
2022/06/13 07:14:16;;;;;;;4.47;1.30;;;15.20;93.30;;;;;;5120325;27;20055;-64
2022/06/13 07:16:42;;;;;;;5.60;1.52;;;14.80;96.70;;;;;;5167982;27;20042;-65
2022/06/13 07:19:07;;;;;;;3.83;1.10;;;14.40;98.20;;;;;;5153151;27;20042;-65
2022/06/13 07:21:34;;;;;;;4.82;1.30;;;14.20;98.40;;;;;;5150541;27;20047;-65
2022/06/13 07:24:00;;;;;;;3.47;0.98;;;13.90;99.20;;;;;;5130260;27;20031;-65
2022/06/13 07:26:25;;;;;;;4.40;1.17;;;13.90;99.50;;;;;;5152952;27;20045;-65
2022/06/13 07:28:51;;;;;;;5.13;1.30;;;14.10;99.90;;;;;;5153210;27;20488;-65
2022/06/13 07:31:25;;;;;;;3.38;1.20;;;14.50;99.90;;;;;;5152870;27;20042;-65
2022/06/13 07:33:50;;;;;;;2.88;1.08;;;14.80;99.90;;;;;;5148773;27;20043;-65
2022/06/13 07:36:17;;;;;;;3.15;1.00;;;15.20;99.90;;;;;;5154165;27;20045;-64
2022/06/13 07:38:42;;;;;;;2.40;0.80;;;15.50;99.90;;;;;;5152047;27;20075;-64
2022/06/13 07:41:12;;;;;;;2.15;0.70;;;15.30;99.90;;;;;;5153983;27;20038;-64
2022/06/13 07:43:37;;;;;;;1.92;0.70;;;15.50;99.90;;;;;;5150095;27;20549;-64
2022/06/13 07:46:06;;;;;;;2.30;1.00;;;15.80;99.90;;;;;;5145225;27;20118;-64
2022/06/13 07:48:32;;;;;;;2.00;0.73;;;16.10;99.90;;;;;;5150249;27;20115;-64
2022/06/13 07:50:59;;;;;;;1.98;0.75;;;16.50;98.80;;;;;;5148545;27;20058;-64
2022/06/13 07:53:25;;;;;;;1.98;0.70;;;16.90;96.10;;;;;;5141230;27;20051;-65
2022/06/13 07:55:50;;;;;;;5.68;0.90;;;17.30;94.50;;;;;;5144366;27;20034;-64
2022/06/13 07:58:22;;;;;;;4.60;1.17;;;17.40;93.00;;;;;;5149937;27;20074;-65
2022/06/13 08:00:49;;;;;;;3.28;0.90;;;17.40;88.30;;;;;;5145305;27;20054;-64
2022/06/13 08:03:23;;;;;;;4.80;1.33;;;17.90;91.40;;;;;;5149670;27;20061;-65
2022/06/13 08:05:50;;;;;;;1.65;0.93;;;18.40;81.30;;;;;;5150233;27;20351;-65
2022/06/13 08:08:16;;;;;;;2.70;1.00;;;18.80;88.80;;;;;;5151169;27;20091;-64
2022/06/13 08:10:42;;;;;;;3.50;0.98;;;19.00;85.50;;;;;;5148913;27;20035;-65
2022/06/13 08:13:11;;;;;;;3.50;1.08;;;19.00;81.00;;;;;;5146132;27;20050;-65
2022/06/13 08:15:37;;;;;;;2.05;0.82;;;19.20;82.20;;;;;;5139230;27;20141;-65
2022/06/13 08:18:03;;;;;;;1.42;0.90;;;19.00;80.80;;;;;;5153912;27;20081;-65
2022/06/13 08:20:28;;;;;;;4.03;1.27;;;18.90;81.20;;;;;;5150131;27;20087;-65
2022/06/13 08:22:55;;;;;;;2.97;1.00;;;18.90;80.80;;;;;;5131022;27;20035;-65
2022/06/13 08:25:27;;;;;;;4.07;1.20;;;19.20;80.10;;;;;;5149092;27;20035;-65
2022/06/13 08:27:54;;;;;;;2.17;1.02;;;19.60;78.90;;;;;;5153763;27;20085;-65
2022/06/13 08:30:20;;;;;;;3.20;1.00;;;19.40;79.30;;;;;;5150173;27;20066;-65
2022/06/13 08:32:45;;;;;;;4.18;1.13;;;19.20;79.10;;;;;;5151269;27;20069;-65
2022/06/13 08:35:12;;;;;;;2.50;0.82;;;19.00;79.30;;;;;;5132794;27;20110;-65
2022/06/13 08:37:38;;;;;;;5.70;0.93;;;18.60;79.30;;;;;;5148002;27;20062;-64
2022/06/13 08:40:04;;;;;;;4.18;1.10;;;18.50;79.50;;;;;;5130853;27;20077;-65
2022/06/13 08:42:41;;;;;;;4.57;1.40;;;18.60;79.20;;;;;;5150903;27;20715;-65
2022/06/13 08:45:18;;;;;;;6.88;1.20;;;18.70;78.70;;;;;;5131897;27;20043;-64
2022/06/13 08:48:15;;;;;;;4.53;1.20;;;18.70;78.80;;;;;;5136136;27;20033;-65
2022/06/13 08:50:43;;;;;;;4.03;1.13;;;19.50;74.60;;;;;;5149504;27;20126;-65
2022/06/13 08:53:21;;;;;;;2.92;1.08;;;20.60;73.60;;;;;;5150715;27;20050;-65
2022/06/13 08:55:51;;;;;;;5.82;1.33;;;21.80;69.40;;;;;;5152182;27;20073;-65
2022/06/13 08:58:27;;;;;;;3.15;1.00;;;22.50;66.60;;;;;;5153573;27;20454;-65
2022/06/13 09:01:00;;;;;;;4.63;1.10;;;22.10;62.50;;;;;;5147647;27;20434;-65
2022/06/13 09:03:34;;;;;;;3.47;0.80;;;21.60;63.10;;;;;;5157243;27;20047;-65
2022/06/13 09:06:09;;;;;;;2.75;0.90;;;21.00;64.10;;;;;;5154687;27;20429;-65
2022/06/13 09:08:45;;;;;;;4.80;1.10;;;20.40;66.40;;;;;;5154984;27;20070;-65
2022/06/13 09:11:13;;;;;;;3.78;0.93;;;19.80;67.90;;;;;;5156417;27;20393;-64
2022/06/13 09:13:52;;;;;;;7.03;1.52;;;19.30;67.00;;;;;;5146752;27;20066;-64
2022/06/13 09:16:28;;;;;;;5.35;0.90;;;19.30;66.80;;;;;;5147436;27;20041;-65
2022/06/13 09:19:28;;;;;;;6.00;1.25;;;19.30;66.70;;;;;;5157158;27;20042;-65
2022/06/13 09:21:54;;;;;;;5.80;1.00;;;19.20;66.80;;;;;;5156915;27;20062;-65
2022/06/13 09:25:00;;;;;;;2.60;0.80;;;19.40;67.30;;;;;;5154881;27;20108;-65
2022/06/13 09:27:33;;;;;;;5.13;0.80;;;20.20;60.10;;;;;;5097691;27;20090;-65
2022/06/13 09:30:22;;;;;;;4.72;0.88;;;21.90;60.90;;;;;;5151071;27;20057;-65
2022/06/13 09:32:56;;;;;;;2.30;0.75;;;23.30;58.30;;;;;;5149539;27;20038;-65
2022/06/13 09:35:36;;;;;;;4.43;0.80;;;24.60;52.70;;;;;;5155564;27;20026;-65
2022/06/13 09:38:40;;;;;;;4.45;0.95;;;24.50;49.60;;;;;;5155875;27;20050;-65
2022/06/13 09:41:19;;;;;;;4.30;0.95;;;22.80;47.70;;;;;;5140651;27;20030;-65
2022/06/13 09:43:57;;;;;;;2.50;0.70;;;22.40;53.40;;;;;;5154585;27;20057;-65
2022/06/13 09:46:28;;;;;;;3.50;0.93;;;21.90;54.80;;;;;;5145944;27;20035;-65
2022/06/13 09:48:59;;;;;;;2.40;0.60;;;22.60;53.70;;;;;;5142662;27;20035;-66
2022/06/13 09:51:44;;;;;;;6.10;1.15;;;24.30;51.30;;;;;;5154774;27;20039;-65
2022/06/13 09:54:33;;;;;;;3.33;0.63;;;25.70;48.90;;;;;;5133767;27;20060;-66
2022/06/13 09:57:14;;;;;;;2.30;0.70;;;24.60;44.50;;;;;;5150218;27;20047;-65
2022/06/13 10:00:20;;;;;;;2.50;0.55;;;23.10;48.00;;;;;;5150266;27;20176;-65
2022/06/13 10:03:15;;;;;;;2.40;0.57;;;22.20;47.70;;;;;;5151665;27;20069;-65
2022/06/13 10:05:47;;;;;;;1.17;0.43;;;21.50;49.70;;;;;;5145117;27;20455;-65
2022/06/13 10:08:38;;;;;;;2.58;0.73;;;21.60;50.10;;;;;;5149254;27;20037;-65
2022/06/13 10:11:31;;;;;;;7.28;0.77;;;22.40;48.40;;;;;;5146406;27;20112;-66
2022/06/13 10:14:16;;;;;;;2.15;0.70;;;23.10;46.20;;;;;;5141113;27;20031;-65
2022/06/13 10:17:27;;;;;;;3.00;0.80;;;25.00;45.40;;;;;;5148983;27;20121;-66
2022/06/13 10:20:21;;;;;;;2.55;0.88;;;26.60;45.10;;;;;;5138999;27;20050;-66
2022/06/13 10:23:06;;;;;;;3.40;1.20;;;28.00;43.20;;;;;;5148768;27;20034;-66
2022/06/13 10:26:06;;;;;;;3.72;1.00;;;27.30;42.70;;;;;;5125506;27;20169;-65
2022/06/13 10:29:06;;;;;;;5.65;1.30;;;24.80;48.10;;;;;;5144894;27;20049;-65
2022/06/13 10:31:53;;;;;;;3.38;0.90;;;21.50;55.80;;;;;;5149533;27;20038;-65
2022/06/13 10:34:47;;;;;;;2.35;0.93;;;19.80;62.40;;;;;;5151546;27;20100;-65
2022/06/13 10:37:43;;;;;;;5.22;1.25;;;19.00;66.30;;;;;;5151813;27;20496;-65
2022/06/13 10:40:10;;;;;;;5.15;1.10;;;18.30;70.90;;;;;;5146319;27;20458;-65
2022/06/13 10:42:38;;;;;;;5.00;1.20;;;18.20;70.30;;;;;;5151282;27;20486;-65
2022/06/13 10:45:07;;;;;;;4.22;1.13;;;18.40;71.60;;;;;;5145525;27;20041;-65
2022/06/13 10:47:49;;;;;;;5.20;1.17;;;20.10;70.40;;;;;;5152003;27;20442;-65
2022/06/13 10:50:35;;;;;;;4.00;0.82;;;21.60;63.40;;;;;;5149861;27;20083;-66
2022/06/13 10:53:06;;;;;;;2.45;0.90;;;23.90;59.80;;;;;;5155435;27;20070;-66
2022/06/13 10:55:39;;;;;;;3.28;1.13;;;25.40;55.00;;;;;;5141295;27;20031;-65
2022/06/13 10:58:13;;;;;;;3.85;1.00;;;25.70;52.20;;;;;;5153553;27;20046;-65
2022/06/13 11:00:41;;;;;;;6.40;0.73;;;25.60;50.10;;;;;;5141856;27;20045;-66
2022/06/13 11:03:09;;;;;;;2.25;0.60;;;25.30;50.60;;;;;;5153025;27;20043;-65
2022/06/13 11:05:55;;;;;;;2.13;0.63;;;24.80;48.70;;;;;;5150324;27;20031;-67
2022/06/13 11:08:22;;;;;;;2.40;0.63;;;23.70;47.40;;;;;;5150649;27;20030;-65
2022/06/13 11:11:02;;;;;;;4.80;0.80;;;22.60;50.00;;;;;;5149617;27;20363;-66
2022/06/13 11:13:38;;;;;;;3.50;0.90;;;22.40;50.40;;;;;;5148328;27;20092;-66
2022/06/13 11:22:40;;;;;;;6.30;1.30;;;22.20;52.80;;;;;;5136663;27;20094;-66
2022/06/13 11:25:17;;;;;;;5.30;0.98;;;22.30;52.00;;;;;;5149378;27;20091;-65
2022/06/13 11:27:44;;;;;;;2.90;1.15;;;22.20;52.70;;;;;;5149427;27;20077;-65
2022/06/13 11:30:28;;;;;;;4.40;1.23;;;21.90;52.20;;;;;;5145659;27;20074;-65
2022/06/13 11:33:05;;;;;;;3.78;1.15;;;22.00;52.10;;;;;;5131539;27;20038;-65
2022/06/13 11:35:31;;;;;;;5.93;1.27;;;21.90;52.40;;;;;;5154312;27;20043;-66
2022/06/13 11:38:20;;;;;;;7.35;1.50;;;21.70;53.30;;;;;;5150484;27;20045;-65
2022/06/13 11:41:03;;;;;;;5.07;1.52;;;21.70;54.50;;;;;;5148983;27;20045;-65
2022/06/13 11:43:34;;;;;;;6.18;1.40;;;21.40;55.10;;;;;;5152757;27;20047;-65
2022/06/13 11:46:03;;;;;;;6.80;1.42;;;21.20;55.70;;;;;;5147181;27;20043;-65
2022/06/13 11:48:29;;;;;;;4.75;1.23;;;21.30;56.20;;;;;;5151729;27;20159;-65
2022/06/13 11:51:04;;;;;;;4.28;1.10;;;21.50;55.80;;;;;;5151176;27;20083;-66
2022/06/13 11:53:36;;;;;;;6.72;1.40;;;21.40;55.10;;;;;;5153065;27;20046;-65
2022/06/13 11:56:09;;;;;;;6.00;1.42;;;21.40;55.00;;;;;;5152350;27;20043;-65
2022/06/13 11:58:40;;;;;;;7.95;1.25;;;21.70;54.70;;;;;;5151062;27;20027;-66
2022/06/13 12:01:31;;;;;;;6.25;1.05;;;22.30;54.40;;;;;;5149842;27;20054;-65
2022/06/13 12:04:15;;;;;;;6.07;1.60;;;22.30;52.50;;;;;;5134522;27;20064;-65
2022/06/13 12:06:46;;;;;;;3.80;1.13;;;22.20;53.00;;;;;;5149193;27;20047;-65
2022/06/13 12:09:14;;;;;;;3.75;0.88;;;22.00;53.20;;;;;;5134135;27;20045;-66
2022/06/13 12:11:47;;;;;;;3.78;1.35;;;21.80;53.20;;;;;;5152981;27;20030;-65
2022/06/13 12:14:13;;;;;;;5.43;1.15;;;21.70;53.50;;;;;;5145645;27;20110;-65
2022/06/13 12:16:56;;;;;;;5.45;1.20;;;22.10;53.30;;;;;;5151594;27;20034;-66
2022/06/13 12:19:33;;;;;;;7.40;1.35;;;23.50;51.30;;;;;;5152461;27;20083;-65
2022/06/13 12:22:21;;;;;;;4.15;1.15;;;24.20;49.60;;;;;;5148785;27;20095;-67
2022/06/13 12:25:04;;;;;;;6.68;1.70;;;24.00;48.60;;;;;;5137005;27;20043;-66
2022/06/13 12:27:55;;;;;;;5.15;1.27;;;23.20;49.90;;;;;;5144128;27;20390;-66
2022/06/13 12:30:57;;;;;;;8.80;1.92;;;22.20;51.00;;;;;;5147897;27;20070;-66
2022/06/13 12:33:33;;;;;;;3.85;1.35;;;21.40;53.90;;;;;;5162685;27;20109;-66
2022/06/13 12:36:15;;;;;;;6.43;1.50;;;21.20;54.50;;;;;;5174153;27;20041;-66
2022/06/13 12:39:02;;;;;;;5.85;1.35;;;21.30;55.60;;;;;;5170052;27;20077;-66
2022/06/13 12:41:52;;;;;;;6.35;1.58;;;21.20;55.00;;;;;;5174821;27;20034;-66
2022/06/13 12:44:23;;;;;;;4.10;1.20;;;21.10;55.40;;;;;;5138795;27;20095;-63
2022/06/13 12:47:39;;;;;;;5.10;1.33;;;20.80;56.10;;;;;;5154863;27;20049;-63
2022/06/13 12:50:31;;;;;;;4.75;1.55;;;20.80;56.40;;;;;;5050102;28;20048;-62
2022/06/13 12:53:03;;;;;;;9.73;1.50;;;21.60;55.10;;;;;;5035671;28;20493;-63
2022/06/13 12:55:53;;;;;;;4.57;1.20;;;21.80;53.70;;;;;;5103058;27;20053;-62
2022/06/13 12:58:55;;;;;;;4.97;1.10;;;23.40;51.60;;;;;;5152621;27;20053;-63
2022/06/13 13:01:26;;;;;;;4.22;1.00;;;26.00;47.70;;;;;;5105401;27;20133;-63
2022/06/13 13:04:04;;;;;;;3.20;0.98;;;26.00;45.50;;;;;;5126171;27;20070;-62
2022/06/13 13:06:54;;;;;;;4.60;1.10;;;25.40;44.30;;;;;;5151822;27;20503;-63
2022/06/13 13:09:50;;;;;;;4.97;0.95;;;24.70;44.00;;;;;;5150495;27;20039;-63
2022/06/13 13:12:30;;;;;;;4.25;1.10;;;23.60;44.80;;;;;;5133097;27;20063;-63
2022/06/13 13:15:20;;;;;;;4.55;1.02;;;22.80;46.80;;;;;;5136873;27;20042;-63
2022/06/13 13:18:05;;;;;;;4.05;1.17;;;22.00;48.40;;;;;;5117573;27;20039;-63
2022/06/13 13:20:48;;;;;;;2.95;0.80;;;21.40;49.90;;;;;;5141729;27;20397;-63
2022/06/13 13:23:28;;;;;;;4.20;0.75;;;21.10;51.10;;;;;;5154725;27;20087;-63
2022/06/13 13:26:12;;;;;;;2.17;0.98;;;22.70;50.80;;;;;;5156266;27;20039;-63
2022/06/13 13:29:01;;;;;;;7.43;1.10;;;24.20;47.30;;;;;;5148413;27;20037;-63
2022/06/13 13:31:42;;;;;;;3.42;1.15;;;23.70;46.90;;;;;;5154468;27;20043;-62
2022/06/13 13:34:34;;;;;;;7.20;1.40;;;22.80;47.70;;;;;;5140816;27;20035;-63
2022/06/13 13:37:29;;;;;;;4.43;1.20;;;22.00;50.10;;;;;;5154467;27;20034;-62
2022/06/13 13:40:14;;;;;;;9.30;2.20;;;21.30;50.60;;;;;;5152613;27;20057;-62
2022/06/13 13:42:48;;;;;;;10.70;2.70;;;20.80;52.10;;;;;;5127327;27;20047;-62
2022/06/13 13:45:22;;;;;;;6.00;1.55;;;20.20;54.10;;;;;;5139281;27;20038;-64
2022/06/13 13:47:52;;;;;;;4.45;1.50;;;19.70;56.20;;;;;;5139742;27;20074;-64
2022/06/13 13:50:23;;;;;;;;;;;19.30;58.10;;;;;;5144951;27;20043;-62
2022/06/13 13:52:53;;;;;;;7.20;1.73;;;19.00;58.00;;;;;;5151847;27;19926;-63